Time;durP1;ratioP1;P1;durP2;ratioP2;P2;SDS_P1;SDS_P2;PMS_P1;PMS_P2;Temp;Humidity;BMP_temperature;BMP_pressure;BME280_temperature;BME280_humidity;BME280_pressure;Samples;Min_cycle;Max_cycle;Signal;HPM_P1;HPM_P2
2023/07/18 00:00:27;;;;;;;3.95;1.90;;;20.20;69.90;;;;;;5060747;28;20090;-71
2023/07/18 00:03:15;;;;;;;5.72;1.80;;;20.10;70.00;;;;;;5054853;28;20082;-70
2023/07/18 00:06:01;;;;;;;2.58;1.55;;;20.10;70.30;;;;;;5052341;28;20033;-70
2023/07/18 00:08:47;;;;;;;3.13;1.40;;;20.10;70.50;;;;;;5051686;28;20060;-68
2023/07/18 00:11:33;;;;;;;3.10;1.50;;;20.00;70.70;;;;;;5058282;28;20086;-71
2023/07/18 00:14:19;;;;;;;5.15;1.85;;;20.00;70.90;;;;;;5054893;28;20470;-71
2023/07/18 00:17:05;;;;;;;5.20;2.05;;;20.00;71.20;;;;;;5049625;28;20485;-71
2023/07/18 00:19:51;;;;;;;2.50;1.58;;;20.00;71.50;;;;;;5051560;28;20068;-71
2023/07/18 00:22:37;;;;;;;3.53;1.60;;;19.90;71.70;;;;;;5050216;28;20094;-71
2023/07/18 00:25:23;;;;;;;5.40;1.80;;;19.90;71.90;;;;;;5046919;28;20389;-70
2023/07/18 00:28:09;;;;;;;2.47;1.58;;;19.90;72.20;;;;;;5055322;28;20044;-71
2023/07/18 00:30:55;;;;;;;2.80;1.48;;;19.90;72.40;;;;;;5051472;28;20036;-71
2023/07/18 00:33:41;;;;;;;2.67;1.40;;;19.80;72.60;;;;;;5052601;28;20144;-70
2023/07/18 00:36:27;;;;;;;2.75;1.85;;;19.80;72.90;;;;;;5051244;28;20057;-73
2023/07/18 00:39:13;;;;;;;3.55;1.77;;;19.70;73.10;;;;;;5050766;28;20044;-73
2023/07/18 00:42:00;;;;;;;2.95;1.70;;;19.70;73.30;;;;;;5051014;28;20483;-74
2023/07/18 00:44:50;;;;;;;3.83;1.98;;;19.70;73.60;;;;;;5055177;28;20024;-74
2023/07/18 00:47:40;;;;;;;2.72;1.85;;;19.60;73.90;;;;;;5056279;28;20029;-74
2023/07/18 00:50:27;;;;;;;4.18;1.88;;;19.60;74.00;;;;;;5037172;28;20104;-74
2023/07/18 00:53:13;;;;;;;2.97;1.73;;;19.60;74.30;;;;;;5050743;28;20041;-75
2023/07/18 00:56:00;;;;;;;3.35;1.73;;;19.60;74.50;;;;;;5049027;28;20025;-74
2023/07/18 00:58:46;;;;;;;5.50;2.33;;;19.50;74.80;;;;;;5050230;28;20075;-74
2023/07/18 01:01:34;;;;;;;5.57;1.80;;;19.50;75.10;;;;;;5050247;28;20048;-74
2023/07/18 01:04:20;;;;;;;4.45;1.45;;;19.40;75.30;;;;;;5051135;28;20028;-71
2023/07/18 01:07:06;;;;;;;3.55;1.85;;;19.40;75.50;;;;;;5053050;28;20033;-71
2023/07/18 01:09:53;;;;;;;3.95;1.70;;;19.40;75.80;;;;;;5051063;28;20120;-72
2023/07/18 01:12:39;;;;;;;4.72;1.73;;;19.30;75.90;;;;;;5050688;28;20039;-72
2023/07/18 01:15:30;;;;;;;2.78;1.63;;;19.40;76.10;;;;;;5049909;28;20043;-73
2023/07/18 01:18:16;;;;;;;2.80;2.00;;;19.30;76.40;;;;;;5049189;28;20492;-72
2023/07/18 01:21:03;;;;;;;5.35;1.80;;;19.30;76.50;;;;;;5048994;28;20497;-72
2023/07/18 01:23:49;;;;;;;4.55;2.10;;;19.30;76.70;;;;;;5054137;28;20024;-72
2023/07/18 01:26:38;;;;;;;2.90;1.70;;;19.30;76.90;;;;;;5064145;28;20025;-72
2023/07/18 01:29:24;;;;;;;2.95;1.83;;;19.20;77.10;;;;;;5070863;28;20474;-72
2023/07/18 01:32:10;;;;;;;3.10;1.77;;;19.20;77.20;;;;;;5057848;28;20033;-72
2023/07/18 01:34:56;;;;;;;4.72;1.92;;;19.10;77.50;;;;;;5050081;28;20123;-72
2023/07/18 01:37:44;;;;;;;3.97;2.00;;;19.10;77.70;;;;;;5049229;28;20053;-74
2023/07/18 01:40:30;;;;;;;3.63;1.70;;;19.10;77.90;;;;;;5048584;28;20375;-74
2023/07/18 01:43:17;;;;;;;4.85;2.20;;;19.10;78.00;;;;;;5063705;28;20052;-74
2023/07/18 01:46:03;;;;;;;3.22;1.73;;;19.10;78.30;;;;;;5067176;28;20032;-76
2023/07/18 01:48:49;;;;;;;3.75;1.98;;;19.00;78.40;;;;;;5053987;28;20039;-73
2023/07/18 01:51:37;;;;;;;3.10;1.40;;;19.00;78.70;;;;;;5049222;28;20032;-75
2023/07/18 01:54:23;;;;;;;4.35;2.08;;;18.90;78.80;;;;;;5048837;28;20064;-73
2023/07/18 01:57:09;;;;;;;3.13;1.90;;;18.90;79.10;;;;;;5054869;28;20086;-73
2023/07/18 01:59:55;;;;;;;2.67;1.50;;;18.90;79.40;;;;;;5051294;28;20032;-73
2023/07/18 02:02:41;;;;;;;3.30;1.90;;;18.80;79.60;;;;;;5055201;28;20037;-74
2023/07/18 02:05:30;;;;;;;2.78;1.98;;;18.80;79.80;;;;;;5049784;28;20466;-73
2023/07/18 02:08:15;;;;;;;2.95;1.73;;;18.80;80.00;;;;;;5048668;28;20044;-73
2023/07/18 02:11:01;;;;;;;2.75;1.65;;;18.80;80.10;;;;;;5048661;28;20033;-75
2023/07/18 02:13:47;;;;;;;3.05;2.08;;;18.70;80.10;;;;;;5050516;28;20041;-73
2023/07/18 02:16:33;;;;;;;4.28;1.80;;;18.80;80.40;;;;;;5049646;28;20028;-74
2023/07/18 02:19:19;;;;;;;3.53;1.70;;;18.70;80.60;;;;;;5048532;28;20037;-73
2023/07/18 02:22:05;;;;;;;3.65;1.60;;;18.70;80.80;;;;;;5048673;28;20051;-72
2023/07/18 02:24:51;;;;;;;3.00;1.80;;;18.70;80.90;;;;;;5049537;28;20068;-72
2023/07/18 02:27:40;;;;;;;4.20;2.10;;;18.60;81.00;;;;;;5051319;28;20041;-71
2023/07/18 02:30:26;;;;;;;4.22;2.05;;;18.60;81.30;;;;;;5047825;28;20068;-71
2023/07/18 02:33:12;;;;;;;3.50;1.65;;;18.60;81.40;;;;;;5049218;28;20087;-72
2023/07/18 02:35:59;;;;;;;2.33;1.70;;;18.60;81.60;;;;;;5049028;28;20033;-78
2023/07/18 02:38:45;;;;;;;3.67;2.03;;;18.60;81.90;;;;;;5054119;28;20037;-78
2023/07/18 02:41:31;;;;;;;2.55;1.77;;;18.60;81.90;;;;;;5064239;28;20096;-78
2023/07/18 02:44:17;;;;;;;3.13;1.85;;;18.50;82.10;;;;;;5049008;28;20040;-77
2023/07/18 02:47:04;;;;;;;3.90;2.10;;;18.50;82.90;;;;;;5049421;28;20052;-77
2023/07/18 02:49:50;;;;;;;2.35;1.73;;;18.50;82.70;;;;;;5048448;28;20025;-78
2023/07/18 02:52:38;;;;;;;2.22;1.55;;;18.40;82.90;;;;;;5048178;28;20072;-77
2023/07/18 02:55:24;;;;;;;3.45;2.30;;;18.40;83.10;;;;;;5047999;28;20041;-77
2023/07/18 02:58:10;;;;;;;3.47;1.85;;;18.40;83.20;;;;;;5049042;28;20048;-77
2023/07/18 03:00:56;;;;;;;3.75;1.90;;;18.40;83.40;;;;;;5053666;28;20029;-76
2023/07/18 03:03:42;;;;;;;6.30;1.63;;;18.40;83.70;;;;;;5049559;28;20405;-76
2023/07/18 03:06:29;;;;;;;3.63;1.58;;;18.40;83.90;;;;;;5051943;28;20052;-76
2023/07/18 03:09:17;;;;;;;2.72;1.75;;;18.30;84.10;;;;;;5055624;28;20394;-76
2023/07/18 03:12:06;;;;;;;5.25;1.90;;;18.40;84.40;;;;;;5049071;28;20040;-76
2023/07/18 03:14:52;;;;;;;5.65;2.08;;;18.40;84.60;;;;;;5048858;28;20107;-73
2023/07/18 03:17:37;;;;;;;4.97;2.20;;;18.30;84.90;;;;;;5049858;28;20561;-74
2023/07/18 03:20:24;;;;;;;3.72;1.95;;;18.30;85.10;;;;;;5053312;28;20115;-72
2023/07/18 03:23:09;;;;;;;3.47;1.92;;;18.30;85.20;;;;;;5038378;28;20514;-71
2023/07/18 03:25:55;;;;;;;3.67;1.88;;;18.30;85.30;;;;;;5052636;28;20504;-72
2023/07/18 03:28:41;;;;;;;5.30;2.17;;;18.30;85.50;;;;;;5053380;28;20067;-72
2023/07/18 03:31:27;;;;;;;5.50;1.90;;;18.30;85.90;;;;;;5052692;28;20043;-72
2023/07/18 03:34:13;;;;;;;4.60;1.95;;;18.30;86.00;;;;;;5070867;28;20036;-64
2023/07/18 03:36:59;;;;;;;3.22;1.88;;;18.30;86.10;;;;;;5052412;28;20048;-72
2023/07/18 03:39:45;;;;;;;3.88;1.80;;;18.30;86.30;;;;;;5046967;28;20473;-69
2023/07/18 03:42:34;;;;;;;3.85;2.10;;;18.40;86.50;;;;;;5057382;28;20037;-71
2023/07/18 03:45:20;;;;;;;7.18;2.67;;;18.40;86.60;;;;;;5031365;28;20035;-71
2023/07/18 03:48:06;;;;;;;4.40;2.00;;;18.30;86.80;;;;;;5051188;28;20131;-71
2023/07/18 03:50:53;;;;;;;13.80;2.72;;;18.40;87.50;;;;;;5055327;28;20122;-70
2023/07/18 03:53:39;;;;;;;3.70;2.25;;;18.40;87.20;;;;;;5064924;28;20112;-71
2023/07/18 03:56:26;;;;;;;4.65;2.45;;;18.40;87.30;;;;;;5064265;28;20043;-73
2023/07/18 03:59:12;;;;;;;3.55;2.22;;;18.40;87.30;;;;;;5051829;28;20025;-72
2023/07/18 04:01:58;;;;;;;4.60;2.20;;;18.40;87.50;;;;;;5041632;28;20056;-71
2023/07/18 04:04:44;;;;;;;6.78;2.35;;;18.40;87.60;;;;;;5051339;28;20387;-72
2023/07/18 04:07:31;;;;;;;4.72;2.60;;;18.40;87.70;;;;;;5055441;28;20043;-71
2023/07/18 04:10:17;;;;;;;3.60;2.15;;;18.40;87.80;;;;;;5071523;28;20374;-69
2023/07/18 04:13:03;;;;;;;5.72;2.42;;;18.40;88.00;;;;;;5052753;28;20052;-70
2023/07/18 04:15:49;;;;;;;3.70;2.35;;;18.40;88.20;;;;;;5050852;28;20044;-70
2023/07/18 04:18:35;;;;;;;3.60;2.22;;;18.40;88.30;;;;;;5050284;28;20033;-70
2023/07/18 04:21:22;;;;;;;3.75;2.08;;;18.50;88.60;;;;;;5051488;28;20102;-71
2023/07/18 04:24:08;;;;;;;3.60;2.10;;;18.50;88.60;;;;;;5071558;28;20028;-72
2023/07/18 04:26:54;;;;;;;3.30;2.28;;;18.50;88.60;;;;;;5062677;28;20033;-72
2023/07/18 04:29:40;;;;;;;3.47;2.13;;;18.50;88.60;;;;;;5050612;28;20029;-73
2023/07/18 04:32:26;;;;;;;7.45;3.15;;;18.50;88.70;;;;;;5055227;28;20405;-71
2023/07/18 04:35:12;;;;;;;5.15;2.15;;;18.50;88.80;;;;;;5051473;28;20477;-71
2023/07/18 04:37:58;;;;;;;4.20;2.17;;;18.60;88.90;;;;;;5058837;28;20057;-72
2023/07/18 04:40:44;;;;;;;3.45;2.35;;;18.60;89.00;;;;;;5051058;28;20091;-72
2023/07/18 04:43:30;;;;;;;3.53;2.03;;;18.60;89.10;;;;;;5050417;28;20171;-70
2023/07/18 04:46:16;;;;;;;4.82;2.08;;;18.60;89.20;;;;;;5052052;28;20493;-70
2023/07/18 04:49:02;;;;;;;3.58;2.03;;;18.60;89.30;;;;;;5070710;28;20033;-69
2023/07/18 04:51:51;;;;;;;3.60;2.30;;;18.60;89.50;;;;;;5057679;28;20033;-70
2023/07/18 04:54:37;;;;;;;5.22;2.00;;;18.70;89.60;;;;;;5062845;28;20040;-70
2023/07/18 04:57:24;;;;;;;3.80;1.98;;;18.60;89.40;;;;;;5056758;28;20037;-70
2023/07/18 05:00:10;;;;;;;3.30;2.13;;;18.70;89.50;;;;;;5050325;28;20045;-70
2023/07/18 05:02:58;;;;;;;5.60;2.17;;;18.70;89.70;;;;;;5049398;28;20470;-70
2023/07/18 05:05:44;;;;;;;3.92;2.20;;;18.70;89.80;;;;;;5052732;28;20052;-70
2023/07/18 05:08:30;;;;;;;5.15;2.20;;;18.70;89.80;;;;;;5050088;28;20041;-64
2023/07/18 05:11:17;;;;;;;4.55;2.30;;;18.70;89.90;;;;;;5053498;28;20040;-68
2023/07/18 05:14:03;;;;;;;5.57;2.80;;;18.70;90.00;;;;;;5048663;28;20520;-71
2023/07/18 05:16:49;;;;;;;5.25;2.70;;;18.80;90.00;;;;;;5050607;28;20028;-71
2023/07/18 05:19:35;;;;;;;3.55;2.42;;;18.80;90.00;;;;;;5051040;28;20029;-72
2023/07/18 05:22:21;;;;;;;5.63;2.20;;;18.80;90.00;;;;;;5052540;28;20127;-70
2023/07/18 05:25:09;;;;;;;4.20;2.40;;;18.80;90.00;;;;;;5060986;28;20035;-69
2023/07/18 05:27:56;;;;;;;4.07;2.80;;;18.90;90.00;;;;;;5049500;28;20381;-72
2023/07/18 05:30:42;;;;;;;4.65;2.55;;;19.00;90.00;;;;;;5050943;28;20032;-71
2023/07/18 05:33:28;;;;;;;4.05;2.40;;;19.00;90.00;;;;;;5053269;28;20029;-71
2023/07/18 05:36:16;;;;;;;5.50;2.47;;;19.00;90.00;;;;;;5054895;28;20132;-71
2023/07/18 05:39:02;;;;;;;4.07;2.30;;;19.00;90.00;;;;;;5051639;28;20167;-71
2023/07/18 05:41:48;;;;;;;3.05;2.00;;;19.10;90.00;;;;;;5048974;28;20048;-71
2023/07/18 05:44:34;;;;;;;5.18;2.65;;;19.10;90.00;;;;;;5036054;28;20064;-71
2023/07/18 05:47:20;;;;;;;5.03;2.45;;;19.20;90.00;;;;;;5050320;28;20479;-72
2023/07/18 05:50:07;;;;;;;5.68;2.13;;;19.20;90.00;;;;;;5058136;28;20033;-72
2023/07/18 05:52:53;;;;;;;5.00;2.92;;;19.30;90.00;;;;;;5051132;28;20063;-72
2023/07/18 05:55:38;;;;;;;5.43;2.20;;;19.40;90.00;;;;;;5050941;28;21731;-72
2023/07/18 05:58:24;;;;;;;5.10;2.47;;;19.40;89.80;;;;;;5061138;28;20028;-70
2023/07/18 06:01:12;;;;;;;5.07;2.45;;;19.40;89.70;;;;;;5057305;28;20079;-67
2023/07/18 06:03:59;;;;;;;8.20;2.85;;;19.50;90.10;;;;;;5060811;28;20032;-68
2023/07/18 06:06:45;;;;;;;6.97;2.58;;;19.60;89.80;;;;;;5060321;28;20037;-68
2023/07/18 06:09:31;;;;;;;5.88;2.30;;;19.60;89.80;;;;;;5053581;28;20695;-68
2023/07/18 06:12:17;;;;;;;5.65;2.40;;;19.70;89.60;;;;;;5056125;28;20040;-67
2023/07/18 06:15:04;;;;;;;4.35;2.50;;;19.70;89.70;;;;;;5056266;28;20060;-67
2023/07/18 06:17:50;;;;;;;5.85;2.10;;;19.80;89.50;;;;;;5050454;28;20466;-67
2023/07/18 06:20:40;;;;;;;4.55;2.97;;;19.90;89.10;;;;;;5049377;28;20154;-67
2023/07/18 06:23:27;;;;;;;4.53;2.40;;;20.00;89.00;;;;;;5067444;28;20044;-67
2023/07/18 06:26:12;;;;;;;5.22;2.30;;;20.00;88.60;;;;;;5066067;28;20035;-67
2023/07/18 06:28:58;;;;;;;7.20;2.55;;;20.10;88.50;;;;;;5049635;28;20060;-67
2023/07/18 06:31:46;;;;;;;4.95;1.90;;;20.10;88.30;;;;;;5048346;28;20025;-68
2023/07/18 06:34:33;;;;;;;4.93;2.30;;;20.20;88.40;;;;;;5060901;28;20025;-68
2023/07/18 06:37:19;;;;;;;6.20;2.10;;;20.20;88.10;;;;;;5053170;28;20068;-68
2023/07/18 06:40:05;;;;;;;4.63;2.67;;;20.30;87.80;;;;;;5066036;28;20055;-68
2023/07/18 06:42:51;;;;;;;8.00;2.35;;;20.30;87.60;;;;;;5047956;28;20044;-69
2023/07/18 06:45:37;;;;;;;3.25;1.80;;;20.40;87.40;;;;;;5053481;28;20060;-69
2023/07/18 06:48:26;;;;;;;4.75;2.30;;;20.40;87.30;;;;;;5054835;28;20044;-67
2023/07/18 06:51:14;;;;;;;4.28;2.15;;;20.50;86.90;;;;;;5054209;28;20047;-69
2023/07/18 06:54:00;;;;;;;6.38;2.33;;;20.50;86.90;;;;;;5064138;28;20037;-70
2023/07/18 06:56:46;;;;;;;3.80;2.15;;;20.60;86.50;;;;;;5053135;28;20033;-70
2023/07/18 06:59:32;;;;;;;6.55;2.63;;;20.70;86.20;;;;;;5063481;28;20036;-69
2023/07/18 07:02:18;;;;;;;5.13;2.67;;;20.70;85.90;;;;;;5048310;28;20037;-69
2023/07/18 07:05:04;;;;;;;3.08;1.75;;;20.80;86.30;;;;;;5057554;28;20234;-69
2023/07/18 07:07:51;;;;;;;3.00;1.70;;;20.90;86.20;;;;;;5053287;28;20041;-68
2023/07/18 07:10:41;;;;;;;5.50;2.33;;;20.90;85.60;;;;;;5055359;28;20040;-68
2023/07/18 07:13:27;;;;;;;4.03;2.63;;;20.90;85.50;;;;;;5052055;28;20758;-68
2023/07/18 07:16:13;;;;;;;3.88;2.60;;;20.90;85.20;;;;;;5052597;28;20124;-67
2023/07/18 07:18:59;;;;;;;5.40;2.10;;;21.00;84.90;;;;;;5052735;28;20044;-67
2023/07/18 07:21:45;;;;;;;5.40;2.20;;;21.00;85.00;;;;;;5051584;28;20124;-67
2023/07/18 07:24:31;;;;;;;5.97;2.20;;;21.00;84.00;;;;;;5053210;28;20064;-67
2023/07/18 07:27:18;;;;;;;7.18;2.40;;;21.10;83.60;;;;;;5065434;28;20040;-71
2023/07/18 07:30:05;;;;;;;3.95;1.92;;;21.10;83.10;;;;;;5038636;28;20025;-69
2023/07/18 07:32:52;;;;;;;4.18;2.00;;;21.10;83.00;;;;;;5062346;28;20040;-70
2023/07/18 07:35:37;;;;;;;7.35;2.60;;;21.20;82.90;;;;;;5059208;28;20036;-72
2023/07/18 07:38:23;;;;;;;6.80;2.80;;;21.20;82.70;;;;;;5051247;28;20056;-70
2023/07/18 07:41:09;;;;;;;6.30;2.22;;;21.30;82.60;;;;;;5059612;28;20074;-72
2023/07/18 07:43:55;;;;;;;19.52;3.78;;;21.40;82.30;;;;;;5063587;28;20041;-71
2023/07/18 07:46:41;;;;;;;4.35;1.95;;;21.50;82.30;;;;;;5059781;28;20053;-70
2023/07/18 07:49:27;;;;;;;7.05;2.38;;;21.60;82.10;;;;;;5055432;28;20031;-70
2023/07/18 07:52:13;;;;;;;3.63;2.08;;;21.70;82.20;;;;;;5051280;28;20072;-70
2023/07/18 07:54:59;;;;;;;7.20;2.85;;;21.80;81.50;;;;;;5054513;28;20111;-70
2023/07/18 07:57:46;;;;;;;3.75;2.20;;;21.90;81.30;;;;;;5055745;28;20033;-70
2023/07/18 08:00:32;;;;;;;11.52;2.70;;;22.00;81.00;;;;;;5054169;28;20033;-71
2023/07/18 08:03:18;;;;;;;11.80;2.70;;;22.10;79.80;;;;;;5059615;28;20102;-69
2023/07/18 08:06:04;;;;;;;9.70;3.00;;;22.10;79.90;;;;;;5037996;28;20032;-69
2023/07/18 08:08:50;;;;;;;5.78;2.80;;;22.10;79.90;;;;;;5050459;28;20045;-71
2023/07/18 08:11:36;;;;;;;7.32;2.60;;;22.10;79.30;;;;;;5053037;28;20040;-70
2023/07/18 08:14:22;;;;;;;5.70;2.75;;;22.10;79.20;;;;;;5051882;28;20025;-70
2023/07/18 08:17:08;;;;;;;7.32;3.05;;;22.10;78.80;;;;;;5051742;28;20116;-71
2023/07/18 08:19:54;;;;;;;9.77;3.42;;;22.20;78.80;;;;;;5050978;28;20036;-70
2023/07/18 08:22:40;;;;;;;5.15;1.92;;;22.20;78.70;;;;;;5051540;28;20501;-70
2023/07/18 08:25:26;;;;;;;10.30;3.28;;;22.20;78.70;;;;;;5051845;28;20033;-70
2023/07/18 08:28:12;;;;;;;4.75;2.35;;;22.30;78.60;;;;;;5061583;28;20090;-70
2023/07/18 08:31:02;;;;;;;8.93;2.20;;;22.50;78.70;;;;;;5053245;28;20036;-69
2023/07/18 08:33:48;;;;;;;6.22;2.60;;;22.60;78.20;;;;;;5038295;28;20044;-70
2023/07/18 08:36:36;;;;;;;12.88;3.10;;;22.70;78.00;;;;;;5060648;28;20044;-70
2023/07/18 08:39:22;;;;;;;16.60;3.38;;;22.90;77.60;;;;;;5051340;28;20037;-70
2023/07/18 08:42:12;;;;;;;24.08;3.67;;;23.00;77.60;;;;;;5058811;28;20048;-70
2023/07/18 08:44:59;;;;;;;3.78;1.73;;;23.10;77.20;;;;;;5055229;28;20457;-70
2023/07/18 08:47:47;;;;;;;5.50;2.63;;;23.20;76.90;;;;;;5051357;28;20453;-70
2023/07/18 08:50:35;;;;;;;3.85;1.92;;;23.20;75.80;;;;;;5050847;28;20489;-71
2023/07/18 08:53:22;;;;;;;8.43;2.35;;;23.30;74.70;;;;;;5051081;28;20060;-71
2023/07/18 08:56:08;;;;;;;3.65;1.60;;;23.30;73.50;;;;;;5049484;28;20036;-71
2023/07/18 08:58:57;;;;;;;13.02;2.13;;;23.30;73.80;;;;;;5057271;28;20047;-71
2023/07/18 09:01:47;;;;;;;4.72;1.58;;;23.30;73.10;;;;;;5049842;28;20524;-72
2023/07/18 09:04:33;;;;;;;10.32;2.67;;;23.30;73.20;;;;;;5053079;28;20033;-70
2023/07/18 09:07:22;;;;;;;4.32;1.85;;;23.40;73.30;;;;;;5053289;28;20044;-69
2023/07/18 09:10:08;;;;;;;4.85;2.30;;;23.50;73.10;;;;;;5049891;28;20041;-70
2023/07/18 09:12:59;;;;;;;6.85;2.25;;;23.60;72.90;;;;;;5050050;28;20040;-69
2023/07/18 09:15:45;;;;;;;15.43;2.60;;;23.70;72.90;;;;;;5049223;28;20393;-70
2023/07/18 09:18:31;;;;;;;8.27;1.88;;;23.70;73.00;;;;;;5048370;28;20124;-68
2023/07/18 09:21:18;;;;;;;3.63;1.48;;;23.80;72.20;;;;;;5065449;28;20040;-69
2023/07/18 09:24:04;;;;;;;3.05;2.05;;;23.90;70.30;;;;;;5050314;28;20049;-70
2023/07/18 09:26:50;;;;;;;4.72;1.95;;;23.80;69.70;;;;;;5044369;28;20032;-70
2023/07/18 09:29:36;;;;;;;6.85;3.03;;;23.90;70.00;;;;;;5053852;28;20097;-69
2023/07/18 09:32:23;;;;;;;3.83;1.88;;;24.00;70.10;;;;;;5062636;28;20025;-70
2023/07/18 09:35:10;;;;;;;4.38;2.22;;;24.00;69.80;;;;;;5053461;28;20068;-69
2023/07/18 09:37:56;;;;;;;3.88;2.00;;;24.10;69.50;;;;;;5050589;28;20068;-71
2023/07/18 09:40:42;;;;;;;3.63;1.50;;;24.00;68.60;;;;;;5046264;28;20469;-71
2023/07/18 09:43:28;;;;;;;3.92;1.55;;;24.00;68.80;;;;;;5060397;28;20041;-70
2023/07/18 09:46:16;;;;;;;3.20;1.45;;;24.00;67.80;;;;;;5074010;28;20394;-69
2023/07/18 09:49:02;;;;;;;3.78;1.85;;;24.00;67.30;;;;;;5049659;28;20039;-71
2023/07/18 09:51:56;;;;;;;4.18;2.15;;;24.00;67.00;;;;;;5058139;28;20106;-71
2023/07/18 09:54:43;;;;;;;2.92;1.58;;;24.10;67.80;;;;;;5057506;28;20029;-70
2023/07/18 09:57:30;;;;;;;4.10;1.58;;;24.20;68.60;;;;;;5050072;28;20087;-69
2023/07/18 10:00:16;;;;;;;3.33;1.60;;;24.20;67.50;;;;;;5048626;28;20482;-70
2023/07/18 10:03:03;;;;;;;2.45;1.40;;;24.30;67.20;;;;;;5062735;28;20064;-68
2023/07/18 10:05:50;;;;;;;5.80;1.95;;;24.30;66.80;;;;;;5059652;28;20036;-68
2023/07/18 10:08:38;;;;;;;2.70;1.50;;;24.30;66.40;;;;;;5049555;28;20087;-72
2023/07/18 10:11:24;;;;;;;3.10;1.70;;;24.30;65.50;;;;;;5059329;28;20401;-68
2023/07/18 10:14:13;;;;;;;3.88;1.90;;;24.30;66.20;;;;;;5049615;28;20119;-70
2023/07/18 10:17:06;;;;;;;4.53;1.88;;;24.40;66.00;;;;;;5049547;28;20029;-70
2023/07/18 10:19:52;;;;;;;5.32;1.67;;;24.40;65.70;;;;;;5052382;28;20187;-72
2023/07/18 10:22:52;;;;;;;2.83;1.83;;;24.50;65.40;;;;;;5048204;28;20053;-71
2023/07/18 10:25:39;;;;;;;4.22;1.80;;;24.60;64.80;;;;;;5061886;28;20504;-69
2023/07/18 10:28:41;;;;;;;5.15;2.40;;;24.70;64.80;;;;;;5049955;28;20466;-67
2023/07/18 10:31:28;;;;;;;3.90;1.95;;;24.80;65.00;;;;;;5052788;28;20064;-72
2023/07/18 10:34:18;;;;;;;3.30;1.90;;;24.90;64.00;;;;;;5028971;28;20501;-71
2023/07/18 10:37:10;;;;;;;3.53;1.75;;;24.90;63.20;;;;;;5043709;28;20052;-71
2023/07/18 10:39:56;;;;;;;4.68;2.38;;;24.90;63.30;;;;;;5041383;28;20486;-69
2023/07/18 10:42:43;;;;;;;3.15;1.50;;;24.90;62.80;;;;;;5043822;28;20079;-69
2023/07/18 10:45:35;;;;;;;8.98;2.97;;;24.90;62.10;;;;;;5042655;28;20464;-69
2023/07/18 10:48:21;;;;;;;3.35;2.22;;;24.90;62.30;;;;;;5042144;28;20041;-68
2023/07/18 10:51:08;;;;;;;5.93;1.77;;;24.90;62.50;;;;;;5037940;28;20044;-69
2023/07/18 10:53:55;;;;;;;2.95;1.63;;;25.00;62.30;;;;;;5043380;28;20060;-69
2023/07/18 10:56:41;;;;;;;4.35;1.63;;;25.10;62.60;;;;;;5042815;28;20401;-70
2023/07/18 10:59:27;;;;;;;4.03;1.35;;;25.10;61.60;;;;;;5042322;28;20032;-71
2023/07/18 11:02:13;;;;;;;6.70;1.63;;;25.20;61.50;;;;;;5042859;28;20132;-68
2023/07/18 11:05:10;;;;;;;2.85;1.45;;;25.20;62.00;;;;;;5030218;28;20040;-69
2023/07/18 11:07:56;;;;;;;7.22;2.08;;;25.20;62.00;;;;;;5041935;28;20083;-70
2023/07/18 11:10:42;;;;;;;8.48;1.73;;;25.20;61.70;;;;;;5038280;28;20040;-69
2023/07/18 11:13:34;;;;;;;2.53;1.65;;;25.30;61.10;;;;;;5028013;28;20032;-70
2023/07/18 11:16:20;;;;;;;3.38;1.90;;;25.30;59.70;;;;;;5035731;28;20112;-70
2023/07/18 11:19:06;;;;;;;1.92;1.23;;;25.40;59.90;;;;;;5042769;28;20036;-69
2023/07/18 11:21:53;;;;;;;16.83;2.92;;;25.50;59.60;;;;;;5029971;28;20033;-70
2023/07/18 11:24:40;;;;;;;8.48;2.20;;;25.50;60.10;;;;;;5042755;28;20087;-70
2023/07/18 11:27:27;;;;;;;17.33;2.60;;;25.60;60.10;;;;;;5044950;28;20085;-70
2023/07/18 11:30:13;;;;;;;4.50;1.80;;;25.70;60.00;;;;;;5042715;28;20113;-69
2023/07/18 11:32:59;;;;;;;4.30;2.22;;;25.80;60.10;;;;;;5043414;28;20084;-70
2023/07/18 11:35:46;;;;;;;5.63;1.38;;;25.90;59.50;;;;;;5043312;28;20037;-72
2023/07/18 11:38:32;;;;;;;2.33;1.50;;;25.90;60.00;;;;;;5042010;28;20076;-71
2023/07/18 11:41:36;;;;;;;4.60;1.67;;;26.00;59.40;;;;;;5045099;28;20036;-71
2023/07/18 11:44:25;;;;;;;17.88;2.30;;;26.10;59.50;;;;;;5044393;28;20047;-71
2023/07/18 11:47:12;;;;;;;4.32;1.60;;;26.10;59.20;;;;;;5046141;28;20493;-71
2023/07/18 11:50:01;;;;;;;3.45;1.58;;;26.20;59.10;;;;;;5044253;28;20721;-69
2023/07/18 11:52:48;;;;;;;4.30;1.58;;;26.30;59.20;;;;;;5046512;28;20084;-72
2023/07/18 11:55:34;;;;;;;3.05;1.90;;;26.40;59.10;;;;;;5043628;28;20366;-72
2023/07/18 11:58:21;;;;;;;3.35;1.45;;;26.50;58.10;;;;;;5042166;28;20020;-71
2023/07/18 12:01:07;;;;;;;12.93;3.08;;;26.50;58.30;;;;;;5050653;28;20113;-70
2023/07/18 12:03:54;;;;;;;9.88;1.90;;;26.50;58.10;;;;;;5044870;28;20131;-70
2023/07/18 12:06:41;;;;;;;9.93;3.08;;;26.60;57.50;;;;;;5045001;28;20386;-72
2023/07/18 12:09:27;;;;;;;8.15;2.53;;;26.60;57.80;;;;;;5044400;28;20071;-72
2023/07/18 12:12:13;;;;;;;4.90;1.67;;;26.70;57.50;;;;;;5045304;28;20138;-69
2023/07/18 12:15:00;;;;;;;5.60;1.90;;;26.70;57.20;;;;;;5044666;28;20037;-68
2023/07/18 12:17:45;;;;;;;7.03;2.22;;;26.80;57.30;;;;;;5047052;28;20040;-69
2023/07/18 12:20:33;;;;;;;2.20;1.42;;;26.80;57.20;;;;;;5044609;28;20513;-68
2023/07/18 12:23:19;;;;;;;2.83;1.40;;;26.90;56.50;;;;;;5044603;28;20056;-68
2023/07/18 12:26:05;;;;;;;3.17;1.60;;;26.90;56.30;;;;;;5044191;28;20037;-68
2023/07/18 12:28:51;;;;;;;2.22;1.17;;;26.90;55.70;;;;;;5046696;28;20029;-69
2023/07/18 12:31:37;;;;;;;2.90;1.30;;;27.00;55.70;;;;;;5043160;28;20041;-68
2023/07/18 12:34:24;;;;;;;4.00;1.70;;;26.90;54.70;;;;;;5042831;28;20486;-66
2023/07/18 12:37:10;;;;;;;6.85;1.52;;;26.90;55.30;;;;;;5045233;28;20057;-68
2023/07/18 12:39:56;;;;;;;5.63;1.55;;;27.10;55.60;;;;;;5044579;28;20051;-67
2023/07/18 12:42:42;;;;;;;10.18;2.33;;;27.20;55.60;;;;;;5044426;28;20146;-68
2023/07/18 12:45:28;;;;;;;11.35;2.42;;;27.30;55.50;;;;;;5023487;28;20037;-66
2023/07/18 12:48:15;;;;;;;6.40;1.33;;;27.40;55.10;;;;;;5027120;28;20055;-66
2023/07/18 12:51:03;;;;;;;5.10;1.70;;;27.50;53.90;;;;;;5043475;28;20040;-65
2023/07/18 12:53:49;;;;;;;6.45;2.47;;;27.50;54.30;;;;;;5033828;28;20043;-65
2023/07/18 12:56:37;;;;;;;14.88;2.75;;;27.50;54.80;;;;;;5043968;28;20095;-66
2023/07/18 12:59:23;;;;;;;3.35;1.27;;;27.60;54.60;;;;;;5044854;28;20040;-65
2023/07/18 13:02:09;;;;;;;3.97;1.40;;;27.70;54.70;;;;;;5025627;28;20044;-64
2023/07/18 13:04:55;;;;;;;7.35;1.60;;;27.70;54.50;;;;;;5044244;28;20036;-65
2023/07/18 13:07:41;;;;;;;3.80;1.60;;;27.90;54.70;;;;;;5043841;28;20041;-81
2023/07/18 13:10:27;;;;;;;2.85;1.42;;;27.90;54.20;;;;;;5044872;28;20382;-77
2023/07/18 13:13:13;;;;;;;3.45;2.00;;;27.90;54.40;;;;;;5044707;28;20040;-76
2023/07/18 13:15:59;;;;;;;9.18;2.88;;;28.10;54.10;;;;;;5046008;28;20033;-78
2023/07/18 13:18:45;;;;;;;3.83;2.15;;;28.20;54.10;;;;;;5043185;28;20045;-77
2023/07/18 13:21:31;;;;;;;2.92;1.35;;;28.30;52.90;;;;;;5045152;28;20043;-78
2023/07/18 13:24:17;;;;;;;2.70;1.20;;;28.40;52.50;;;;;;5043998;28;20429;-80
2023/07/18 13:27:04;;;;;;;2.63;1.33;;;28.50;52.60;;;;;;5043886;28;20301;-77
2023/07/18 13:29:50;;;;;;;4.43;1.20;;;28.50;52.40;;;;;;5044936;28;20048;-79
2023/07/18 13:32:36;;;;;;;3.25;1.60;;;28.60;52.80;;;;;;5044239;28;20116;-76
2023/07/18 13:35:22;;;;;;;3.10;1.10;;;28.60;53.00;;;;;;5042798;28;20041;-78
2023/07/18 13:38:08;;;;;;;4.82;1.10;;;28.60;52.20;;;;;;5039202;28;20048;-78
2023/07/18 13:40:54;;;;;;;1.77;1.20;;;28.70;51.70;;;;;;5042009;28;20116;-78
2023/07/18 13:43:42;;;;;;;2.10;1.38;;;28.60;52.00;;;;;;5042523;28;20047;-77
2023/07/18 13:46:28;;;;;;;5.93;1.55;;;28.50;51.30;;;;;;5044296;28;20035;-76
2023/07/18 13:49:14;;;;;;;4.72;1.15;;;28.40;51.20;;;;;;5043737;28;20035;-76
2023/07/18 13:52:00;;;;;;;11.25;2.13;;;28.30;51.00;;;;;;5029684;28;20039;-78
2023/07/18 13:54:46;;;;;;;6.88;2.22;;;28.20;51.30;;;;;;5045305;28;20033;-78
2023/07/18 13:57:32;;;;;;;6.60;2.08;;;28.30;51.00;;;;;;5043047;28;20463;-77
2023/07/18 14:00:19;;;;;;;9.75;1.63;;;28.30;51.10;;;;;;5046755;28;20025;-77
2023/07/18 14:03:05;;;;;;;8.25;1.80;;;28.40;51.20;;;;;;5042355;28;20051;-76
2023/07/18 14:05:53;;;;;;;4.53;1.98;;;28.40;51.20;;;;;;5033532;28;20398;-77
2023/07/18 14:08:39;;;;;;;15.82;2.55;;;28.30;50.80;;;;;;5033918;28;20029;-78
2023/07/18 14:11:25;;;;;;;16.88;3.08;;;28.40;50.80;;;;;;5043847;28;20453;-76
2023/07/18 14:14:11;;;;;;;10.30;2.95;;;28.50;51.30;;;;;;5042956;28;20036;-77
2023/07/18 14:16:56;;;;;;;36.03;5.32;;;28.60;51.10;;;;;;5043564;28;20382;-77
2023/07/18 14:19:42;;;;;;;11.32;3.03;;;28.70;51.80;;;;;;5043100;28;20036;-77
2023/07/18 14:22:28;;;;;;;12.43;2.28;;;28.80;51.10;;;;;;5043620;28;20045;-66
2023/07/18 14:25:16;;;;;;;6.60;1.95;;;28.70;51.10;;;;;;5042609;28;20032;-66